world map with HRG marked

HRG - Airport

This information may not be accurate or current and is not valid for navigation or flight planning. No warranty of fitness for any purpose is made or implied.

flag of Al Bahr al Ahmar (Red Sea)flag of Egypt

Donate via PayPal

Additional information is available on the NEW Great Circle Mapper

Location
City:  Hurghada, Al Bahr al Ahmar (Red Sea), Egypt
Name:Hurghada International Airport
ICAO / IATA:HEGN / HRG

Details
Type:Airport (Aerodrome, Airfield)
Use:Public/Civil
Latitude:27°10'42"N (27.178317)
Longitude:33°47'58"E (33.799436)
Datum:WGS 1984
Elevation:52 ft (16 m)
Runways:1
Longest:13124 × 148 ft (4000 × 45 m)

Time
Timezone:UTC+2 (DST+4)
Local Time:

Weather
METAR:HEGN  170300Z 30007KT CAVOK 18/09 Q1019 NOSIG
TAF:HEGN  161100Z 1612/1718 35014KT 9999 FEW025= TAF HESH 161100Z 1612/1718 02012KT 9999 SCT025

Related Locations
Nearby:
Farthest:RVV: 12187 mi / 19614 km
Raivavae, Tubuai Islands, Austral Islands, PF

Find:

   beyond  
but within

Other Information
Maps:
Sources:

  

Airport Diagram

Airport diagram for HRG

Airport diagram (OBSOLETE) from NGA

 


Great Circle Mapper   Great Circle Mapper
Great Circle Mapper FAQ   Great Circle Mapper FAQ
  Karl's Home Page
KLSē   KLSē Home
   GC on Facebook
Airlines of the World   Airlines of the World
Donate via PayPal


Copyright © 2004-2018, Karl L. Swartz. All rights reserved.
All trademarks mentioned herein belong to their respective owners.

Please see credits for attribution and copyright information.

Karl Swartz <karl@kls2.com>
  Powered by FreeBSD
Valid HTML 4.01!
Labeled with ICRA
hCard Microformat
Geo Microformat